Time;durP1;ratioP1;P1;durP2;ratioP2;P2;SDS_P1;SDS_P2;PMS_P1;PMS_P2;Temp;Humidity;BMP_temperature;BMP_pressure;BME280_temperature;BME280_humidity;BME280_pressure;Samples;Min_cycle;Max_cycle;Signal;HPM_P1;HPM_P2
2023/11/23 00:01:34;;;;;;;9.30;7.88;;;;;;;;;;5055539;28;20196;-67
2023/11/23 00:04:02;;;;;;;11.15;8.00;;;;;;;;;;5055040;28;20272;-67
2023/11/23 00:06:31;;;;;;;7.53;6.72;;;;;;;;;;5054950;28;20208;-67
2023/11/23 00:08:59;;;;;;;7.07;6.05;;;;;;;;;;5055453;28;20260;-67
2023/11/23 00:11:29;;;;;;;8.35;7.50;;;;;;;;;;5055244;28;20200;-67
2023/11/23 00:13:57;;;;;;;8.88;7.18;;;;;;;;;;5056924;28;20786;-67
2023/11/23 00:16:25;;;;;;;7.63;6.30;;;;;;;;;;5055629;28;20208;-67
2023/11/23 00:18:54;;;;;;;8.07;6.70;;;;;;;;;;5055942;28;20200;-67
2023/11/23 00:21:22;;;;;;;7.32;6.63;;;;;;;;;;5055836;28;20203;-67
2023/11/23 00:23:53;;;;;;;8.80;6.55;;;;;;;;;;5038843;28;20211;-66
2023/11/23 00:26:21;;;;;;;15.68;6.07;;;;;;;;;;5055884;28;20251;-67
2023/11/23 00:28:59;;;;;;;7.45;6.10;;;;;;;;;;5057730;28;20208;-67
2023/11/23 00:31:28;;;;;;;7.93;7.13;;;;;;;;;;5056098;28;20203;-67
2023/11/23 00:33:56;;;;;;;6.53;5.93;;;;;;;;;;5056365;28;21167;-67
2023/11/23 00:36:24;;;;;;;9.27;6.40;;;;;;;;;;5055204;28;20201;-67
2023/11/23 00:38:53;;;;;;;7.90;5.95;;;;;;;;;;5056189;28;20266;-67
2023/11/23 00:41:21;;;;;;;8.65;5.85;;;;;;;;;;5055426;28;20219;-67
2023/11/23 00:43:50;;;;;;;7.50;6.70;;;;;;;;;;5064285;28;20308;-67
2023/11/23 00:46:19;;;;;;;19.40;6.30;;;;;;;;;;5061090;28;20727;-67
2023/11/23 00:48:47;;;;;;;6.20;5.53;;;;;;;;;;5058199;28;20231;-67
2023/11/23 00:51:18;;;;;;;7.10;5.75;;;;;;;;;;5058020;28;20204;-67
2023/11/23 00:53:47;;;;;;;5.45;4.70;;;;;;;;;;5076679;28;20278;-67
2023/11/23 00:56:16;;;;;;;5.60;5.07;;;;;;;;;;5075618;28;20286;-67
2023/11/23 00:58:45;;;;;;;5.30;4.70;;;;;;;;;;5075957;28;20255;-67
2023/11/23 01:01:15;;;;;;;6.57;5.05;;;;;;;;;;5056256;28;20196;-67
2023/11/23 01:03:45;;;;;;;8.48;5.90;;;;;;;;;;5074086;28;20265;-67
2023/11/23 01:06:13;;;;;;;6.10;5.50;;;;;;;;;;5073376;28;20271;-67
2023/11/23 01:08:42;;;;;;;9.35;5.80;;;;;;;;;;5074660;28;20232;-67
2023/11/23 01:11:10;;;;;;;7.07;5.90;;;;;;;;;;5056647;28;20189;-67
2023/11/23 01:13:38;;;;;;;5.82;5.22;;;;;;;;;;5072785;28;20333;-67
2023/11/23 01:16:06;;;;;;;7.97;5.93;;;;;;;;;;5076032;28;20555;-67
2023/11/23 01:18:35;;;;;;;7.28;5.20;;;;;;;;;;5058306;28;20283;-67
2023/11/23 01:21:04;;;;;;;6.90;5.57;;;;;;;;;;5058727;28;20288;-67
2023/11/23 01:23:32;;;;;;;8.60;5.60;;;;;;;;;;5042193;28;20714;-67
2023/11/23 01:26:01;;;;;;;7.60;5.70;;;;;;;;;;5059693;28;20279;-67
2023/11/23 01:28:29;;;;;;;7.90;6.53;;;;;;;;;;5058980;28;20239;-67
2023/11/23 01:30:57;;;;;;;6.65;5.50;;;;;;;;;;5058629;28;20287;-67
2023/11/23 01:33:25;;;;;;;8.48;6.10;;;;;;;;;;5059404;28;20291;-72
2023/11/23 01:35:53;;;;;;;9.07;7.03;;;;;;;;;;5054065;28;20204;-72
2023/11/23 01:38:23;;;;;;;8.35;6.78;;;;;;;;;;5053408;28;20213;-71
2023/11/23 01:40:51;;;;;;;7.90;6.32;;;;;;;;;;5036240;28;20209;-71
2023/11/23 01:43:20;;;;;;;7.63;6.70;;;;;;;;;;5053013;28;20242;-71
2023/11/23 01:45:48;;;;;;;8.38;6.95;;;;;;;;;;5071919;28;20537;-71
2023/11/23 01:48:17;;;;;;;8.95;6.60;;;;;;;;;;5073705;28;20227;-71
2023/11/23 01:50:47;;;;;;;7.35;6.65;;;;;;;;;;5072268;28;20200;-72
2023/11/23 01:53:15;;;;;;;10.10;7.45;;;;;;;;;;5073552;28;20200;-72
2023/11/23 01:55:46;;;;;;;7.80;6.68;;;;;;;;;;5072926;28;20200;-72
2023/11/23 01:58:15;;;;;;;7.72;6.43;;;;;;;;;;5055515;28;20237;-72
2023/11/23 02:00:44;;;;;;;7.78;6.32;;;;;;;;;;5057014;28;20684;-67
2023/11/23 02:03:12;;;;;;;6.57;5.97;;;;;;;;;;5076959;28;20295;-67
2023/11/23 02:05:41;;;;;;;7.88;6.53;;;;;;;;;;5059739;28;20286;-67
2023/11/23 02:08:09;;;;;;;7.20;6.47;;;;;;;;;;5073244;28;20214;-67
2023/11/23 02:10:37;;;;;;;12.35;7.05;;;;;;;;;;5040442;28;20319;-67
2023/11/23 02:13:07;;;;;;;6.97;6.30;;;;;;;;;;5061956;28;20283;-67
2023/11/23 02:15:36;;;;;;;10.57;6.55;;;;;;;;;;5058651;28;20299;-67
2023/11/23 02:18:05;;;;;;;7.97;6.80;;;;;;;;;;5058745;28;20204;-67
2023/11/23 02:20:34;;;;;;;14.57;7.53;;;;;;;;;;5039983;28;20264;-67
2023/11/23 02:23:03;;;;;;;9.88;7.47;;;;;;;;;;5061125;28;20280;-67
2023/11/23 02:25:33;;;;;;;11.40;7.50;;;;;;;;;;5061311;28;20295;-67
2023/11/23 02:28:03;;;;;;;10.45;7.20;;;;;;;;;;5077399;28;20267;-66
2023/11/23 02:30:32;;;;;;;10.85;8.40;;;;;;;;;;5079369;28;20287;-67
2023/11/23 02:33:01;;;;;;;9.52;7.57;;;;;;;;;;5079031;28;20263;-67
2023/11/23 02:35:29;;;;;;;9.60;8.00;;;;;;;;;;5079362;28;20255;-67
2023/11/23 02:37:57;;;;;;;9.23;7.43;;;;;;;;;;5079574;28;20286;-67
2023/11/23 02:40:26;;;;;;;11.60;8.45;;;;;;;;;;5077667;28;20196;-66
2023/11/23 02:42:56;;;;;;;9.43;8.13;;;;;;;;;;5078474;28;20275;-67
2023/11/23 02:45:24;;;;;;;11.13;8.27;;;;;;;;;;5071234;28;20256;-67
2023/11/23 02:47:52;;;;;;;12.00;7.85;;;;;;;;;;5078765;28;20711;-67
2023/11/23 02:50:20;;;;;;;11.50;7.53;;;;;;;;;;5079016;28;20713;-67
2023/11/23 02:52:49;;;;;;;13.52;8.85;;;;;;;;;;5079480;28;20279;-67
2023/11/23 02:55:17;;;;;;;9.65;8.35;;;;;;;;;;5079036;28;20267;-67
2023/11/23 02:57:45;;;;;;;10.90;8.48;;;;;;;;;;5078192;28;20247;-67
2023/11/23 03:00:15;;;;;;;12.13;7.60;;;;;;;;;;5078396;28;20255;-67
2023/11/23 03:02:43;;;;;;;13.38;9.10;;;;;;;;;;5078193;28;20294;-67
2023/11/23 03:05:12;;;;;;;13.25;8.50;;;;;;;;;;5077528;28;20252;-67
2023/11/23 03:07:40;;;;;;;9.18;7.68;;;;;;;;;;5077774;28;20697;-67
2023/11/23 03:10:09;;;;;;;26.05;16.08;;;;;;;;;;5060748;28;20730;-67
2023/11/23 03:12:38;;;;;;;12.50;8.27;;;;;;;;;;5079217;28;20279;-67
2023/11/23 03:15:06;;;;;;;9.95;8.25;;;;;;;;;;5077131;28;20255;-67
2023/11/23 03:17:36;;;;;;;10.45;8.45;;;;;;;;;;5078178;28;20342;-67
2023/11/23 03:20:04;;;;;;;10.60;8.07;;;;;;;;;;5078334;28;20279;-67
2023/11/23 03:22:32;;;;;;;15.95;11.73;;;;;;;;;;5078063;28;20998;-67
2023/11/23 03:25:01;;;;;;;63.90;30.02;;;;;;;;;;5079272;28;20282;-67
2023/11/23 03:27:29;;;;;;;374.73;177.82;;;;;;;;;;5076983;28;20626;-67
2023/11/23 03:29:57;;;;;;;27.00;16.27;;;;;;;;;;5078152;28;20634;-67
2023/11/23 03:32:29;;;;;;;11.55;8.57;;;;;;;;;;5077125;28;20215;-67
2023/11/23 03:34:59;;;;;;;20.85;11.50;;;;;;;;;;5063501;28;20314;-67
2023/11/23 03:37:28;;;;;;;19.65;11.40;;;;;;;;;;5077878;28;20251;-67
2023/11/23 03:39:56;;;;;;;28.95;14.38;;;;;;;;;;5071761;28;20279;-67
2023/11/23 03:42:25;;;;;;;16.58;9.40;;;;;;;;;;5055993;28;20255;-67
2023/11/23 03:44:53;;;;;;;9.68;8.68;;;;;;;;;;5077143;28;20310;-67
2023/11/23 03:47:21;;;;;;;12.15;9.63;;;;;;;;;;5077783;28;20267;-67
2023/11/23 03:49:51;;;;;;;17.63;10.57;;;;;;;;;;5050486;28;20271;-67
2023/11/23 03:52:20;;;;;;;13.75;8.25;;;;;;;;;;5058046;28;20291;-67
2023/11/23 03:54:49;;;;;;;13.00;8.98;;;;;;;;;;5076259;28;20260;-67
2023/11/23 03:57:17;;;;;;;12.38;8.43;;;;;;;;;;5079157;28;20260;-67
2023/11/23 03:59:45;;;;;;;11.20;7.40;;;;;;;;;;5078194;28;20275;-67
2023/11/23 04:02:14;;;;;;;13.35;8.90;;;;;;;;;;5077603;28;20267;-67
2023/11/23 04:04:42;;;;;;;9.82;7.85;;;;;;;;;;5075725;28;20288;-71
2023/11/23 04:07:10;;;;;;;12.23;9.18;;;;;;;;;;5070875;28;20206;-71
2023/11/23 04:09:40;;;;;;;11.52;8.70;;;;;;;;;;5071374;28;20239;-70
2023/11/23 04:12:08;;;;;;;11.55;7.95;;;;;;;;;;5069055;28;20200;-70
2023/11/23 04:14:36;;;;;;;15.80;7.63;;;;;;;;;;5070136;28;20195;-69
2023/11/23 04:17:04;;;;;;;10.65;8.15;;;;;;;;;;5058210;28;20203;-71
2023/11/23 04:19:33;;;;;;;10.00;8.50;;;;;;;;;;5053572;28;20200;-71
2023/11/23 04:22:03;;;;;;;13.95;9.57;;;;;;;;;;5071139;28;20212;-71
2023/11/23 04:24:31;;;;;;;13.00;9.57;;;;;;;;;;5071080;28;20214;-71
2023/11/23 04:27:01;;;;;;;11.15;8.57;;;;;;;;;;5071099;28;20208;-71
2023/11/23 04:29:30;;;;;;;13.88;8.68;;;;;;;;;;5052472;28;20690;-71
2023/11/23 04:31:58;;;;;;;13.27;9.73;;;;;;;;;;5071048;28;20203;-71
2023/11/23 04:34:26;;;;;;;10.35;8.88;;;;;;;;;;5070939;28;20208;-71
2023/11/23 04:36:55;;;;;;;10.65;8.20;;;;;;;;;;5052105;28;20206;-72
2023/11/23 04:39:23;;;;;;;16.67;9.07;;;;;;;;;;5070844;28;20203;-71
2023/11/23 04:41:51;;;;;;;11.77;8.45;;;;;;;;;;5070528;28;20208;-72
2023/11/23 04:44:21;;;;;;;14.00;8.80;;;;;;;;;;5070599;28;20231;-71
2023/11/23 04:46:50;;;;;;;14.07;8.77;;;;;;;;;;5062669;28;20577;-72
2023/11/23 04:49:18;;;;;;;15.48;10.50;;;;;;;;;;5070681;28;20230;-71
2023/11/23 04:51:46;;;;;;;13.88;9.05;;;;;;;;;;5073107;28;20211;-72
2023/11/23 04:54:14;;;;;;;13.55;10.00;;;;;;;;;;5065964;28;20204;-71
2023/11/23 04:56:43;;;;;;;13.50;9.60;;;;;;;;;;5054830;28;20258;-72
2023/11/23 04:59:11;;;;;;;13.88;8.93;;;;;;;;;;5054349;28;20780;-71
2023/11/23 05:01:40;;;;;;;14.27;8.80;;;;;;;;;;5053900;28;20573;-71
2023/11/23 05:04:09;;;;;;;12.65;9.77;;;;;;;;;;5067639;28;20666;-71
2023/11/23 05:06:37;;;;;;;11.50;8.57;;;;;;;;;;5073722;28;20239;-71
2023/11/23 05:09:06;;;;;;;14.45;9.98;;;;;;;;;;5074093;28;20234;-71
2023/11/23 05:11:34;;;;;;;12.18;9.20;;;;;;;;;;5074580;28;20560;-73
2023/11/23 05:14:12;;;;;;;10.20;7.85;;;;;;;;;;5056644;28;20200;-72
2023/11/23 05:16:42;;;;;;;11.40;8.18;;;;;;;;;;5073674;28;20219;-71
2023/11/23 05:19:11;;;;;;;10.15;7.75;;;;;;;;;;5073621;28;20189;-71
2023/11/23 05:21:40;;;;;;;13.10;9.77;;;;;;;;;;5074451;28;20203;-71
2023/11/23 05:24:08;;;;;;;9.40;8.30;;;;;;;;;;5074116;28;20713;-71
2023/11/23 05:26:37;;;;;;;10.52;7.13;;;;;;;;;;5074048;28;20211;-71
2023/11/23 05:29:05;;;;;;;10.73;7.15;;;;;;;;;;5074520;28;20214;-71
2023/11/23 05:31:34;;;;;;;10.80;8.35;;;;;;;;;;5074216;28;20246;-72
2023/11/23 05:34:05;;;;;;;12.50;9.60;;;;;;;;;;5074064;28;20218;-71
2023/11/23 05:36:33;;;;;;;11.32;8.43;;;;;;;;;;5074322;28;20188;-71
2023/11/23 05:39:01;;;;;;;9.40;7.65;;;;;;;;;;5056126;28;20206;-71
2023/11/23 05:41:29;;;;;;;9.50;8.05;;;;;;;;;;5073595;28;20206;-71
2023/11/23 05:43:58;;;;;;;11.98;8.88;;;;;;;;;;5067201;28;20225;-71
2023/11/23 05:46:26;;;;;;;10.25;7.45;;;;;;;;;;5061399;28;20212;-71
2023/11/23 05:48:55;;;;;;;11.90;8.32;;;;;;;;;;5066640;28;20208;-71
2023/11/23 05:51:24;;;;;;;12.27;8.30;;;;;;;;;;5055457;28;20212;-71
2023/11/23 05:53:53;;;;;;;13.50;7.43;;;;;;;;;;5066243;28;20659;-71
2023/11/23 05:56:21;;;;;;;10.77;7.70;;;;;;;;;;5035577;28;20208;-72
2023/11/23 05:58:49;;;;;;;12.73;7.18;;;;;;;;;;5053163;28;20209;-71
2023/11/23 06:01:17;;;;;;;10.00;8.50;;;;;;;;;;5052483;28;20200;-71
2023/11/23 06:03:46;;;;;;;10.38;7.72;;;;;;;;;;5052326;28;20224;-71
2023/11/23 06:06:20;;;;;;;11.20;8.93;;;;;;;;;;5052703;28;20209;-71
2023/11/23 06:08:50;;;;;;;11.35;8.73;;;;;;;;;;5068397;28;20634;-71
2023/11/23 06:11:18;;;;;;;11.48;8.77;;;;;;;;;;5073036;28;20207;-71
2023/11/23 06:13:47;;;;;;;15.52;9.38;;;;;;;;;;5071927;28;20196;-71
2023/11/23 06:16:15;;;;;;;13.55;9.50;;;;;;;;;;5071923;28;20574;-71
2023/11/23 06:18:44;;;;;;;13.95;9.82;;;;;;;;;;5071735;28;20237;-71
2023/11/23 06:21:12;;;;;;;12.95;10.18;;;;;;;;;;5072135;28;20245;-71
2023/11/23 06:23:41;;;;;;;15.52;10.65;;;;;;;;;;5071500;28;20609;-71
2023/11/23 06:26:11;;;;;;;18.30;11.48;;;;;;;;;;5072118;28;20688;-72
2023/11/23 06:28:39;;;;;;;18.52;11.23;;;;;;;;;;5072293;28;20203;-71
2023/11/23 06:31:07;;;;;;;11.88;9.52;;;;;;;;;;5071417;28;20216;-71
2023/11/23 06:33:36;;;;;;;18.05;11.20;;;;;;;;;;5070655;28;20204;-71
2023/11/23 06:36:04;;;;;;;15.65;10.98;;;;;;;;;;5073047;28;20210;-72
2023/11/23 06:38:33;;;;;;;12.55;9.95;;;;;;;;;;5053566;28;20553;-72
2023/11/23 06:41:02;;;;;;;12.60;10.45;;;;;;;;;;5073210;28;20310;-71
2023/11/23 06:43:32;;;;;;;14.23;9.90;;;;;;;;;;5071142;28;20216;-71
2023/11/23 06:46:00;;;;;;;16.00;11.60;;;;;;;;;;5072261;28;20241;-71
2023/11/23 06:48:28;;;;;;;13.55;9.40;;;;;;;;;;5068777;28;20196;-71
2023/11/23 06:50:56;;;;;;;12.60;9.80;;;;;;;;;;5069408;28;20212;-71
2023/11/23 06:53:25;;;;;;;13.90;9.30;;;;;;;;;;5053114;28;20192;-72
2023/11/23 06:55:54;;;;;;;13.68;9.20;;;;;;;;;;5054019;28;20206;-70
2023/11/23 06:58:22;;;;;;;14.55;9.43;;;;;;;;;;5070193;28;20200;-73
2023/11/23 07:00:52;;;;;;;11.95;8.65;;;;;;;;;;5072536;28;20666;-72
2023/11/23 07:03:21;;;;;;;11.52;8.88;;;;;;;;;;5057126;28;20203;-72
2023/11/23 07:05:49;;;;;;;11.07;9.15;;;;;;;;;;5054285;28;20233;-73
2023/11/23 07:08:18;;;;;;;11.20;9.00;;;;;;;;;;5071351;28;20206;-73
2023/11/23 07:10:46;;;;;;;11.90;8.15;;;;;;;;;;5072124;28;20238;-73
2023/11/23 07:13:15;;;;;;;9.85;8.00;;;;;;;;;;5071145;28;20568;-73
2023/11/23 07:15:43;;;;;;;10.57;8.05;;;;;;;;;;5073375;28;20211;-72
2023/11/23 07:18:13;;;;;;;14.57;6.85;;;;;;;;;;5074468;28;20666;-71
2023/11/23 07:20:42;;;;;;;8.43;6.63;;;;;;;;;;5071292;28;20196;-71
2023/11/23 07:23:10;;;;;;;9.95;6.07;;;;;;;;;;5069993;28;20206;-72
2023/11/23 07:25:43;;;;;;;13.63;6.03;;;;;;;;;;5063140;28;20204;-72
2023/11/23 07:28:12;;;;;;;8.02;6.20;;;;;;;;;;5055935;28;20189;-71
2023/11/23 07:30:40;;;;;;;7.18;5.90;;;;;;;;;;5087455;22;20284;-86
2023/11/23 07:33:09;;;;;;;9.73;6.15;;;;;;;;;;5032463;28;20749;-86
2023/11/23 07:35:39;;;;;;;8.90;6.10;;;;;;;;;;5035938;28;20249;-88
2023/11/23 07:38:07;;;;;;;7.53;5.80;;;;;;;;;;5056344;28;20280;-87
2023/11/23 07:40:36;;;;;;;12.85;6.38;;;;;;;;;;5052230;28;20234;-87
2023/11/23 07:43:12;;;;;;;8.30;6.03;;;;;;;;;;5051836;28;20298;-87
2023/11/23 07:45:44;;;;;;;6.00;5.50;;;;;;;;;;5021253;28;20690;-85
2023/11/23 07:48:20;;;;;;;8.13;6.30;;;;;;;;;;5036121;28;20181;-87
2023/11/23 07:50:52;;;;;;;7.20;5.95;;;;;;;;;;5033871;28;20221;-86
2023/11/23 07:53:20;;;;;;;7.30;5.97;;;;;;;;;;5028256;28;20177;-87
2023/11/23 07:55:49;;;;;;;6.32;5.72;;;;;;;;;;5024349;28;20209;-86
2023/11/23 07:58:17;;;;;;;5.43;4.60;;;;;;;;;;5026742;28;20211;-88
2023/11/23 08:00:45;;;;;;;6.50;5.90;;;;;;;;;;5031258;28;20273;-86
2023/11/23 08:03:14;;;;;;;7.03;6.30;;;;;;;;;;5051977;28;20275;-88
2023/11/23 08:05:43;;;;;;;7.38;6.35;;;;;;;;;;5062709;28;20276;-86
2023/11/23 08:08:13;;;;;;;7.07;6.22;;;;;;;;;;5057012;28;20710;-86
2023/11/23 08:10:41;;;;;;;7.43;6.10;;;;;;;;;;5057984;28;20192;-86
2023/11/23 08:13:14;;;;;;;6.88;6.13;;;;;;;;;;5052070;28;20185;-87
2023/11/23 08:15:43;;;;;;;6.75;6.00;;;;;;;;;;5048646;28;20197;-89
2023/11/23 08:18:11;;;;;;;8.45;6.65;;;;;;;;;;5052367;28;20300;-89
2023/11/23 08:20:39;;;;;;;9.07;6.85;;;;;;;;;;5041402;28;20291;-88
2023/11/23 08:23:12;;;;;;;7.82;6.35;;;;;;;;;;5081909;28;20219;-88
2023/11/23 08:25:42;;;;;;;7.97;6.93;;;;;;;;;;5053107;28;20224;-89
2023/11/23 08:28:11;;;;;;;8.93;6.20;;;;;;;;;;5042747;28;20705;-88
2023/11/23 08:30:40;;;;;;;8.65;6.85;;;;;;;;;;5043058;28;20181;-87
2023/11/23 08:33:12;;;;;;;13.18;7.47;;;;;;;;;;5083519;28;20199;-88
2023/11/23 08:35:42;;;;;;;9.10;7.13;;;;;;;;;;5071448;28;20239;-88
2023/11/23 08:38:11;;;;;;;9.93;7.28;;;;;;;;;;5087305;28;20191;-88
2023/11/23 08:40:44;;;;;;;12.68;8.05;;;;;;;;;;5082412;28;20694;-88
2023/11/23 08:43:14;;;;;;;10.38;7.32;;;;;;;;;;5053791;28;20196;-87
2023/11/23 08:45:46;;;;;;;7.75;6.95;;;;;;;;;;5053918;28;20559;-87
2023/11/23 08:48:22;;;;;;;10.48;7.28;;;;;;;;;;5069142;28;20210;-88
2023/11/23 08:50:50;;;;;;;12.60;6.50;;;;;;;;;;5090916;28;20188;-86
2023/11/23 08:53:18;;;;;;;8.05;6.50;;;;;;;;;;5082518;28;20312;-86
2023/11/23 08:55:50;;;;;;;9.05;7.05;;;;;;;;;;5071874;28;20558;-87
2023/11/23 08:58:18;;;;;;;8.20;7.22;;;;;;;;;;5091313;28;20191;-88
2023/11/23 09:00:46;;;;;;;9.35;6.28;;;;;;;;;;5059021;28;20279;-86
2023/11/23 09:03:14;;;;;;;8.43;7.00;;;;;;;;;;5048720;28;20291;-89
2023/11/23 09:05:42;;;;;;;8.63;7.03;;;;;;;;;;5065290;28;20352;-87
2023/11/23 09:08:12;;;;;;;10.02;6.50;;;;;;;;;;5078322;28;20176;-87
2023/11/23 09:10:40;;;;;;;10.00;7.20;;;;;;;;;;5074714;28;20254;-85
2023/11/23 09:13:09;;;;;;;7.75;6.57;;;;;;;;;;5070840;28;20292;-88
2023/11/23 09:15:37;;;;;;;7.55;6.10;;;;;;;;;;5078740;28;20212;-88
2023/11/23 09:18:07;;;;;;;7.13;6.43;;;;;;;;;;5043111;28;20216;-88
2023/11/23 09:20:35;;;;;;;6.68;6.07;;;;;;;;;;5097426;28;20340;-87
2023/11/23 09:23:05;;;;;;;7.35;6.22;;;;;;;;;;5083014;28;20250;-90
2023/11/23 09:25:34;;;;;;;7.63;6.68;;;;;;;;;;5054206;28;20197;-90
2023/11/23 09:28:02;;;;;;;8.60;6.82;;;;;;;;;;5039517;28;20188;-89
2023/11/23 09:30:32;;;;;;;7.18;5.93;;;;;;;;;;5065961;28;20196;-87
2023/11/23 09:33:04;;;;;;;6.32;5.80;;;;;;;;;;5084847;28;20219;-87
2023/11/23 09:35:39;;;;;;;6.30;5.70;;;;;;;;;;5064548;28;20219;-86
2023/11/23 09:38:07;;;;;;;6.60;5.93;;;;;;;;;;5056064;28;20238;-86
2023/11/23 09:40:36;;;;;;;11.18;5.85;;;;;;;;;;5060095;28;20224;-87
2023/11/23 09:43:04;;;;;;;10.25;5.60;;;;;;;;;;5074089;28;20223;-86
2023/11/23 09:45:35;;;;;;;8.27;6.13;;;;;;;;;;5084620;28;20196;-86
2023/11/23 09:48:05;;;;;;;8.60;6.45;;;;;;;;;;5079231;28;20193;-86
2023/11/23 09:50:33;;;;;;;8.10;6.10;;;;;;;;;;5080561;28;20278;-85
2023/11/23 09:53:04;;;;;;;8.38;7.53;;;;;;;;;;5080377;28;20741;-86
2023/11/23 09:55:32;;;;;;;8.05;6.07;;;;;;;;;;5047075;28;20612;-87
2023/11/23 09:58:10;;;;;;;6.20;5.65;;;;;;;;;;5068949;28;20206;-86
2023/11/23 10:01:05;;;;;;;6.78;6.07;;;;;;;;;;5067693;28;20255;-86
2023/11/23 10:03:45;;;;;;;9.40;7.43;;;;;;;;;;5054919;28;20207;-87
2023/11/23 10:06:24;;;;;;;8.85;6.55;;;;;;;;;;5055101;28;20247;-86
2023/11/23 10:08:54;;;;;;;8.48;6.43;;;;;;;;;;5065752;28;20228;-87
2023/11/23 10:11:26;;;;;;;9.13;6.60;;;;;;;;;;5085487;28;20214;-87
2023/11/23 10:13:56;;;;;;;9.63;7.32;;;;;;;;;;5069552;28;20326;-87
2023/11/23 10:16:24;;;;;;;7.10;6.40;;;;;;;;;;5071218;28;20669;-87
2023/11/23 10:18:54;;;;;;;9.63;6.53;;;;;;;;;;5063276;28;20642;-87
2023/11/23 10:21:23;;;;;;;7.95;6.70;;;;;;;;;;5088450;28;20266;-87
2023/11/23 10:24:16;;;;;;;9.93;7.32;;;;;;;;;;5055928;28;20207;-87
2023/11/23 10:26:58;;;;;;;6.90;6.20;;;;;;;;;;5061725;28;20183;-89
2023/11/23 10:29:29;;;;;;;9.00;6.53;;;;;;;;;;5094517;28;20187;-89
2023/11/23 10:32:17;;;;;;;7.75;6.57;;;;;;;;;;5065809;28;20285;-88
2023/11/23 10:34:50;;;;;;;8.18;7.15;;;;;;;;;;5048517;28;20258;-87
2023/11/23 10:37:18;;;;;;;8.68;6.85;;;;;;;;;;5093889;28;20223;-89
2023/11/23 10:40:03;;;;;;;8.35;6.38;;;;;;;;;;5052455;28;20286;-88
2023/11/23 10:42:44;;;;;;;9.90;6.57;;;;;;;;;;5082106;28;20543;-88
2023/11/23 10:45:17;;;;;;;7.95;6.90;;;;;;;;;;5058926;28;20654;-86
2023/11/23 10:47:51;;;;;;;8.95;7.05;;;;;;;;;;5074297;28;20247;-88
2023/11/23 10:50:35;;;;;;;7.85;6.57;;;;;;;;;;5054805;28;20207;-87
2023/11/23 10:53:09;;;;;;;11.32;6.78;;;;;;;;;;5061941;28;20202;-88
2023/11/23 10:55:39;;;;;;;9.77;6.57;;;;;;;;;;5060931;28;20427;-87
2023/11/23 10:58:09;;;;;;;8.93;6.90;;;;;;;;;;5082819;28;20190;-86
2023/11/23 11:00:38;;;;;;;9.07;7.85;;;;;;;;;;5085711;28;20213;-87
2023/11/23 11:03:07;;;;;;;8.20;7.03;;;;;;;;;;5099679;28;20176;-86
2023/11/23 11:05:45;;;;;;;9.38;6.93;;;;;;;;;;5072295;28;20633;-88
2023/11/23 11:08:19;;;;;;;8.40;5.93;;;;;;;;;;5060588;28;20270;-87
2023/11/23 11:10:50;;;;;;;10.27;7.40;;;;;;;;;;5075132;28;20195;-89
2023/11/23 11:13:20;;;;;;;9.48;8.32;;;;;;;;;;5097124;28;20259;-88
2023/11/23 11:15:52;;;;;;;9.65;7.68;;;;;;;;;;5062866;28;20265;-91
2023/11/23 11:18:24;;;;;;;10.68;7.15;;;;;;;;;;5080187;28;20279;-90
2023/11/23 11:21:06;;;;;;;8.52;6.97;;;;;;;;;;5069880;28;20252;-90
2023/11/23 11:23:41;;;;;;;10.48;7.03;;;;;;;;;;5072655;28;20187;-92
2023/11/23 11:26:27;;;;;;;10.60;7.20;;;;;;;;;;5065595;28;20281;-87
2023/11/23 11:28:57;;;;;;;8.65;7.68;;;;;;;;;;5039652;28;20242;-90
2023/11/23 11:31:33;;;;;;;9.02;6.35;;;;;;;;;;5088588;28;20283;-90
2023/11/23 11:34:02;;;;;;;8.07;5.97;;;;;;;;;;5086518;28;20235;-89
2023/11/23 11:36:37;;;;;;;10.15;8.00;;;;;;;;;;5086986;28;20182;-90
2023/11/23 11:39:10;;;;;;;10.90;7.82;;;;;;;;;;5086115;28;20199;-88
2023/11/23 11:41:41;;;;;;;9.10;7.40;;;;;;;;;;5062092;28;20207;-91
2023/11/23 11:44:13;;;;;;;11.30;7.95;;;;;;;;;;5062321;28;20203;-90
2023/11/23 11:46:47;;;;;;;11.90;7.80;;;;;;;;;;5047915;28;20268;-90
2023/11/23 11:49:17;;;;;;;13.93;8.35;;;;;;;;;;5052884;28;20314;-89
2023/11/23 11:51:47;;;;;;;10.63;8.20;;;;;;;;;;5055221;28;20283;-88
2023/11/23 11:54:16;;;;;;;9.75;7.65;;;;;;;;;;5055045;28;20261;-89
2023/11/23 11:56:47;;;;;;;16.17;8.88;;;;;;;;;;5041269;28;20266;-88
2023/11/23 11:59:18;;;;;;;13.52;9.27;;;;;;;;;;5092532;28;20235;-91
2023/11/23 12:01:47;;;;;;;11.15;7.82;;;;;;;;;;5095319;28;20314;-90
2023/11/23 12:04:18;;;;;;;13.70;9.93;;;;;;;;;;5053718;28;20299;-87
2023/11/23 12:06:50;;;;;;;12.27;9.20;;;;;;;;;;5072657;28;20318;-89
2023/11/23 12:09:27;;;;;;;11.35;8.68;;;;;;;;;;5055877;28;20262;-89
2023/11/23 12:12:12;;;;;;;14.80;9.85;;;;;;;;;;5054653;28;20272;-86
2023/11/23 12:14:49;;;;;;;12.25;8.77;;;;;;;;;;5076258;28;20258;-89
2023/11/23 12:17:31;;;;;;;11.57;8.52;;;;;;;;;;5073109;28;20195;-90
2023/11/23 12:27:33;;;;;;;9.25;7.00;;;;;;;;;;5062737;28;20207;-89
2023/11/23 12:30:05;;;;;;;9.20;6.15;;;;;;;;;;5051901;28;20199;-88
2023/11/23 12:32:33;;;;;;;7.63;6.57;;;;;;;;;;5060061;22;20228;-69
2023/11/23 12:35:01;;;;;;;8.50;6.70;;;;;;;;;;5046028;28;20193;-69
2023/11/23 12:37:29;;;;;;;9.85;7.18;;;;;;;;;;5048004;28;20266;-68
2023/11/23 12:39:59;;;;;;;15.88;7.50;;;;;;;;;;5038291;28;20208;-67
2023/11/23 12:42:27;;;;;;;9.98;7.88;;;;;;;;;;5041876;28;20656;-68
2023/11/23 12:44:56;;;;;;;11.13;7.50;;;;;;;;;;5040068;28;20691;-67
2023/11/23 12:47:24;;;;;;;10.45;7.90;;;;;;;;;;5016728;28;20215;-68
2023/11/23 12:49:52;;;;;;;10.98;7.80;;;;;;;;;;5048070;28;20207;-67
2023/11/23 12:52:20;;;;;;;9.88;8.00;;;;;;;;;;5043776;28;20201;-68
2023/11/23 12:54:48;;;;;;;10.43;8.98;;;;;;;;;;5025305;28;20808;-68
2023/11/23 12:57:18;;;;;;;9.93;8.40;;;;;;;;;;5033893;28;20211;-68
2023/11/23 12:59:46;;;;;;;13.43;8.25;;;;;;;;;;5042168;28;20193;-68
2023/11/23 13:02:14;;;;;;;9.30;8.07;;;;;;;;;;5040031;28;20189;-68
2023/11/23 13:04:42;;;;;;;15.57;9.05;;;;;;;;;;5040538;28;20193;-68
2023/11/23 13:07:10;;;;;;;10.23;9.10;;;;;;;;;;5028360;28;20194;-68
2023/11/23 13:09:38;;;;;;;13.75;8.60;;;;;;;;;;5031716;28;20209;-67
2023/11/23 13:12:08;;;;;;;16.23;9.57;;;;;;;;;;5032766;28;20213;-69
2023/11/23 13:14:39;;;;;;;10.63;9.25;;;;;;;;;;5036265;28;20247;-67
2023/11/23 13:17:08;;;;;;;10.90;9.02;;;;;;;;;;5034084;28;20209;-68
2023/11/23 13:19:36;;;;;;;13.65;11.07;;;;;;;;;;5035399;28;20449;-68
2023/11/23 13:22:04;;;;;;;12.88;10.90;;;;;;;;;;5041371;28;20208;-68
2023/11/23 13:24:32;;;;;;;15.73;9.85;;;;;;;;;;5022336;28;20207;-68
2023/11/23 13:27:01;;;;;;;16.55;11.63;;;;;;;;;;5039736;28;20208;-68
2023/11/23 13:29:29;;;;;;;14.35;11.35;;;;;;;;;;5031982;28;20201;-68
2023/11/23 13:31:59;;;;;;;15.25;11.50;;;;;;;;;;5031824;28;20738;-67
2023/11/23 13:34:27;;;;;;;13.55;11.38;;;;;;;;;;5044863;28;20609;-68
2023/11/23 13:36:55;;;;;;;19.40;11.88;;;;;;;;;;5035094;28;20934;-68
2023/11/23 13:39:24;;;;;;;16.92;11.95;;;;;;;;;;5032331;28;20194;-68
2023/11/23 13:41:52;;;;;;;15.02;11.13;;;;;;;;;;5033009;28;20200;-68
2023/11/23 13:44:20;;;;;;;16.40;12.40;;;;;;;;;;5033774;28;20222;-68
2023/11/23 13:46:48;;;;;;;13.93;11.20;;;;;;;;;;5034430;28;20207;-68
2023/11/23 13:49:18;;;;;;;16.88;10.68;;;;;;;;;;5039718;28;20252;-68
2023/11/23 13:51:46;;;;;;;14.93;11.40;;;;;;;;;;5042240;28;20262;-68
2023/11/23 13:54:14;;;;;;;18.92;11.65;;;;;;;;;;5039434;28;20944;-68
2023/11/23 13:56:43;;;;;;;14.73;10.38;;;;;;;;;;5035258;28;20205;-68
2023/11/23 13:59:11;;;;;;;13.05;9.57;;;;;;;;;;5031008;28;20578;-68
2023/11/23 14:01:39;;;;;;;11.30;8.45;;;;;;;;;;5032590;28;20208;-68
2023/11/23 14:04:12;;;;;;;10.48;8.95;;;;;;;;;;5032129;28;20208;-68
2023/11/23 14:06:44;;;;;;;11.68;8.77;;;;;;;;;;5044295;28;20207;-68
2023/11/23 14:09:17;;;;;;;10.70;8.63;;;;;;;;;;5038345;28;20210;-68
2023/11/23 14:11:46;;;;;;;10.88;7.68;;;;;;;;;;5030812;28;20207;-68
2023/11/23 14:14:16;;;;;;;10.10;7.95;;;;;;;;;;5034195;28;20225;-68
2023/11/23 14:16:44;;;;;;;9.35;8.45;;;;;;;;;;5031998;28;20205;-68
2023/11/23 14:19:15;;;;;;;9.55;8.05;;;;;;;;;;5046085;28;20227;-68
2023/11/23 14:21:46;;;;;;;12.85;9.40;;;;;;;;;;5045875;28;20573;-68
2023/11/23 14:24:15;;;;;;;9.95;8.50;;;;;;;;;;5038670;28;20206;-67
2023/11/23 14:26:43;;;;;;;10.20;8.68;;;;;;;;;;5032104;28;20212;-68
2023/11/23 14:29:11;;;;;;;9.70;8.20;;;;;;;;;;5032914;28;20209;-68
2023/11/23 14:31:39;;;;;;;14.43;8.85;;;;;;;;;;5030945;28;20209;-68
2023/11/23 14:34:08;;;;;;;10.30;9.23;;;;;;;;;;5035080;28;20248;-68
2023/11/23 14:36:36;;;;;;;15.50;9.57;;;;;;;;;;5045292;28;20196;-68
2023/11/23 14:39:05;;;;;;;11.55;10.00;;;;;;;;;;5047408;28;20589;-67
2023/11/23 14:41:35;;;;;;;15.65;11.57;;;;;;;;;;5039454;28;20209;-68
2023/11/23 14:44:04;;;;;;;34.60;25.30;;;;;;;;;;5033454;28;20221;-68
2023/11/23 14:46:32;;;;;;;13.40;10.45;;;;;;;;;;5034409;28;20606;-68
2023/11/23 14:49:01;;;;;;;11.80;10.05;;;;;;;;;;5045592;28;20204;-68
2023/11/23 14:51:29;;;;;;;14.00;10.50;;;;;;;;;;5041420;28;20204;-68
2023/11/23 14:53:57;;;;;;;11.73;9.35;;;;;;;;;;5036858;28;20223;-68
2023/11/23 14:56:27;;;;;;;13.05;10.00;;;;;;;;;;5037138;28;20275;-68